Time;durP1;ratioP1;P1;durP2;ratioP2;P2;SDS_P1;SDS_P2;PMS_P1;PMS_P2;Temp;Humidity;BMP_temperature;BMP_pressure;BME280_temperature;BME280_humidity;BME280_pressure;Samples;Min_cycle;Max_cycle;Signal;HPM_P1;HPM_P2
2023/07/29 00:01:14;;;;;;;3.92;1.60;;;20.60;99.90;;;;;;5001586;28;20033;-76
2023/07/29 00:03:42;;;;;;;1.80;1.70;;;20.60;99.90;;;;;;4994407;28;20457;-79
2023/07/29 00:06:09;;;;;;;1.92;1.83;;;20.60;99.90;;;;;;4994502;28;20057;-76
2023/07/29 00:08:37;;;;;;;2.95;2.03;;;20.50;99.90;;;;;;4994783;28;20120;-76
2023/07/29 00:11:02;;;;;;;2.17;1.80;;;20.50;99.90;;;;;;4993085;28;20084;-77
2023/07/29 00:13:30;;;;;;;1.60;1.50;;;20.60;99.90;;;;;;5012521;28;20030;-76
2023/07/29 00:15:56;;;;;;;2.40;2.20;;;20.60;99.90;;;;;;4993682;28;20056;-75
2023/07/29 00:18:25;;;;;;;2.70;2.00;;;20.50;99.90;;;;;;4994166;28;20030;-75
2023/07/29 00:20:50;;;;;;;4.35;2.00;;;20.40;99.90;;;;;;4997424;28;20109;-76
2023/07/29 00:23:19;;;;;;;1.98;1.88;;;20.30;99.90;;;;;;4998860;28;20116;-76
2023/07/29 00:25:45;;;;;;;2.10;1.88;;;20.30;99.90;;;;;;4996750;28;20058;-76
2023/07/29 00:28:12;;;;;;;2.60;2.40;;;20.20;99.90;;;;;;4992312;28;20030;-76
2023/07/29 00:30:37;;;;;;;2.28;2.08;;;20.30;99.90;;;;;;4997747;28;20034;-75
2023/07/29 00:33:03;;;;;;;2.38;2.17;;;20.30;99.90;;;;;;4997042;28;20875;-77
2023/07/29 00:35:29;;;;;;;2.10;1.90;;;20.40;99.90;;;;;;4995280;28;20462;-75
2023/07/29 00:37:54;;;;;;;3.47;2.15;;;20.40;99.90;;;;;;4994293;28;20034;-75
2023/07/29 00:40:23;;;;;;;2.60;2.10;;;20.50;99.90;;;;;;4996361;28;21274;-75
2023/07/29 00:42:52;;;;;;;2.95;2.15;;;20.50;99.90;;;;;;4995030;28;20062;-77
2023/07/29 00:45:18;;;;;;;2.47;2.17;;;20.40;99.90;;;;;;4992874;28;20026;-77
2023/07/29 00:47:44;;;;;;;2.13;2.00;;;20.40;99.90;;;;;;4994648;28;20030;-76
2023/07/29 00:50:12;;;;;;;2.17;1.98;;;20.30;99.90;;;;;;5008423;28;20053;-80
2023/07/29 00:52:37;;;;;;;3.05;2.00;;;20.40;99.90;;;;;;4993202;28;20527;-75
2023/07/29 00:55:05;;;;;;;2.80;1.88;;;20.40;99.90;;;;;;4994552;28;20109;-76
2023/07/29 00:57:31;;;;;;;2.25;2.10;;;20.30;99.90;;;;;;4992164;28;20047;-78
2023/07/29 00:59:57;;;;;;;3.13;2.40;;;20.40;99.90;;;;;;4992326;28;20486;-78
2023/07/29 01:02:23;;;;;;;2.03;1.92;;;20.50;99.90;;;;;;5009729;28;20116;-78
2023/07/29 01:05:01;;;;;;;2.78;2.03;;;20.50;99.90;;;;;;5000529;28;20045;-85
2023/07/29 01:07:27;;;;;;;2.92;2.17;;;20.60;99.90;;;;;;4999218;28;20026;-83
2023/07/29 01:10:02;;;;;;;4.75;2.00;;;20.50;99.90;;;;;;4997573;28;20125;-87
2023/07/29 01:12:45;;;;;;;4.25;2.00;;;20.50;99.90;;;;;;4996131;28;20022;-88
2023/07/29 01:15:13;;;;;;;;;;;20.50;99.90;;;;;;4996579;28;20075;-87
2023/07/29 01:17:47;;;;;;;4.10;2.20;;;20.30;99.90;;;;;;5012720;28;19928;-86
2023/07/29 01:20:17;;;;;;;3.75;2.33;;;20.40;99.90;;;;;;4996523;28;20621;-78
2023/07/29 01:22:46;;;;;;;3.78;2.45;;;20.30;99.90;;;;;;4999176;28;20041;-79
2023/07/29 01:25:13;;;;;;;3.97;2.20;;;20.40;99.90;;;;;;4994112;28;20021;-87
2023/07/29 01:27:39;;;;;;;5.35;2.70;;;20.40;99.90;;;;;;4997329;28;20022;-84
2023/07/29 01:30:08;;;;;;;5.63;2.30;;;20.40;99.90;;;;;;5013557;28;20497;-84
2023/07/29 01:32:43;;;;;;;6.05;2.70;;;20.30;99.90;;;;;;4998087;28;20026;-86
2023/07/29 01:35:23;;;;;;;5.85;2.47;;;20.40;99.90;;;;;;4996028;28;20092;-84
2023/07/29 01:37:54;;;;;;;3.15;2.35;;;20.40;99.90;;;;;;4996056;28;20033;-79
2023/07/29 01:40:27;;;;;;;3.35;2.65;;;20.40;99.90;;;;;;4994087;28;20022;-78
2023/07/29 01:42:52;;;;;;;6.30;2.33;;;20.50;99.90;;;;;;4996093;28;20171;-78
2023/07/29 01:45:21;;;;;;;4.50;2.00;;;20.50;99.90;;;;;;4993839;28;20046;-85
2023/07/29 01:47:47;;;;;;;4.18;2.50;;;20.40;99.90;;;;;;4994067;28;20018;-84
2023/07/29 01:50:14;;;;;;;3.08;2.53;;;20.40;99.90;;;;;;5014349;28;20026;-85
2023/07/29 01:52:42;;;;;;;2.58;2.38;;;20.40;99.90;;;;;;4994049;28;20118;-85
2023/07/29 01:55:08;;;;;;;5.15;2.58;;;20.40;99.90;;;;;;4996726;28;20513;-85
2023/07/29 01:57:34;;;;;;;3.10;2.90;;;20.30;99.90;;;;;;5001468;28;20199;-84
2023/07/29 02:00:03;;;;;;;3.72;2.70;;;20.30;99.90;;;;;;5003411;28;20093;-86
2023/07/29 02:02:29;;;;;;;4.15;2.50;;;20.40;99.90;;;;;;4997016;28;20677;-85
2023/07/29 02:04:57;;;;;;;3.20;2.65;;;20.50;99.90;;;;;;4995892;28;20207;-85
2023/07/29 02:07:23;;;;;;;2.72;2.30;;;20.60;99.90;;;;;;4995946;28;20030;-86
2023/07/29 02:09:48;;;;;;;2.85;2.65;;;20.70;99.90;;;;;;4994631;28;20044;-79
2023/07/29 02:12:14;;;;;;;2.13;1.95;;;20.60;99.90;;;;;;4999510;28;20050;-79
2023/07/29 02:14:39;;;;;;;2.42;2.30;;;20.70;99.90;;;;;;4991058;28;20029;-79
2023/07/29 02:17:08;;;;;;;2.88;2.53;;;20.80;99.90;;;;;;4989835;28;20035;-79
2023/07/29 02:19:34;;;;;;;3.55;2.30;;;20.70;99.90;;;;;;4991211;28;20022;-78
2023/07/29 02:22:00;;;;;;;4.53;2.60;;;20.60;99.90;;;;;;4991618;28;20026;-79
2023/07/29 02:24:25;;;;;;;3.00;2.30;;;20.50;99.90;;;;;;5009970;28;20160;-79
2023/07/29 02:26:51;;;;;;;4.68;2.45;;;20.60;99.90;;;;;;4992677;28;20427;-79
2023/07/29 02:29:16;;;;;;;4.55;2.55;;;20.60;99.90;;;;;;4993150;28;20057;-79
2023/07/29 02:31:44;;;;;;;2.72;2.50;;;20.70;99.90;;;;;;4992874;28;20092;-80
2023/07/29 02:34:09;;;;;;;4.28;2.97;;;20.70;99.90;;;;;;4998870;28;20030;-78
2023/07/29 02:36:35;;;;;;;2.80;2.60;;;20.50;99.90;;;;;;4994754;28;20440;-80
2023/07/29 02:39:00;;;;;;;3.88;2.45;;;20.50;99.90;;;;;;4994443;28;20035;-78
2023/07/29 02:41:26;;;;;;;3.00;2.80;;;20.60;99.90;;;;;;4998223;28;20030;-79
2023/07/29 02:43:52;;;;;;;2.70;2.50;;;20.50;99.90;;;;;;4997626;28;20026;-79
2023/07/29 02:46:18;;;;;;;5.78;3.03;;;20.60;99.90;;;;;;4993934;28;20037;-78
2023/07/29 02:48:44;;;;;;;7.07;3.05;;;20.50;99.90;;;;;;4990385;28;20038;-79
2023/07/29 02:51:10;;;;;;;3.05;2.85;;;20.50;99.90;;;;;;4991986;28;20046;-80
2023/07/29 02:53:38;;;;;;;3.08;2.85;;;20.60;99.90;;;;;;4999502;28;20022;-79
2023/07/29 02:56:04;;;;;;;3.45;3.20;;;20.60;99.90;;;;;;4992063;28;20030;-79
2023/07/29 02:58:30;;;;;;;3.88;2.78;;;20.70;99.90;;;;;;4991602;28;20405;-79
2023/07/29 03:01:06;;;;;;;5.05;3.00;;;20.70;99.90;;;;;;4994108;28;20052;-78
2023/07/29 03:03:32;;;;;;;4.20;3.70;;;20.60;99.90;;;;;;4997024;28;20033;-85
2023/07/29 03:06:06;;;;;;;3.70;3.38;;;20.50;99.90;;;;;;4996647;28;20664;-85
2023/07/29 03:08:32;;;;;;;3.90;3.55;;;20.40;99.90;;;;;;4995976;28;20094;-83
2023/07/29 03:10:58;;;;;;;6.22;3.50;;;20.40;99.90;;;;;;5000713;28;20022;-85
2023/07/29 03:13:24;;;;;;;3.80;3.50;;;20.40;99.90;;;;;;5002610;28;20029;-86
2023/07/29 03:15:51;;;;;;;4.40;3.97;;;20.40;99.90;;;;;;4996340;28;20084;-86
2023/07/29 03:18:16;;;;;;;4.72;4.30;;;20.50;99.90;;;;;;4992179;28;20042;-79
2023/07/29 03:20:42;;;;;;;5.38;4.97;;;20.60;99.90;;;;;;4994061;28;20095;-78
2023/07/29 03:23:08;;;;;;;6.38;4.65;;;20.50;99.90;;;;;;4991251;28;20054;-79
2023/07/29 03:25:33;;;;;;;6.13;5.28;;;20.40;99.90;;;;;;4992722;28;20496;-79
2023/07/29 03:27:59;;;;;;;6.25;4.55;;;20.50;99.90;;;;;;4997071;28;20023;-85
2023/07/29 03:30:25;;;;;;;12.57;5.45;;;20.50;99.90;;;;;;5002076;28;20116;-84
2023/07/29 03:32:51;;;;;;;8.50;6.00;;;20.40;99.90;;;;;;5005940;28;20476;-85
2023/07/29 03:35:17;;;;;;;7.38;5.75;;;20.40;99.90;;;;;;4999755;28;20052;-86
2023/07/29 03:37:43;;;;;;;8.73;5.72;;;20.50;99.90;;;;;;5000500;28;20879;-85
2023/07/29 03:40:09;;;;;;;6.53;5.75;;;20.40;99.90;;;;;;5010061;28;20030;-86
2023/07/29 03:42:35;;;;;;;5.82;5.22;;;20.40;99.90;;;;;;5001224;28;20023;-86
2023/07/29 03:45:01;;;;;;;6.22;5.25;;;20.40;99.90;;;;;;4996306;28;20037;-86
2023/07/29 03:47:27;;;;;;;7.13;5.68;;;20.40;99.90;;;;;;4996227;28;20461;-86
2023/07/29 03:49:53;;;;;;;6.65;6.05;;;20.40;99.90;;;;;;5000784;28;20018;-86
2023/07/29 03:52:18;;;;;;;6.43;5.82;;;20.40;99.90;;;;;;5014024;28;20077;-85
2023/07/29 03:54:44;;;;;;;7.60;5.78;;;20.20;99.90;;;;;;4998278;28;20063;-79
2023/07/29 03:57:09;;;;;;;5.93;5.43;;;20.20;99.90;;;;;;4989897;28;20025;-79
2023/07/29 03:59:35;;;;;;;6.57;5.88;;;20.20;99.90;;;;;;4996450;28;20025;-79
2023/07/29 04:02:01;;;;;;;8.20;5.88;;;20.20;99.90;;;;;;5011545;28;20076;-79
2023/07/29 04:04:26;;;;;;;6.80;6.18;;;20.30;99.90;;;;;;4994744;28;20270;-78
2023/07/29 04:06:52;;;;;;;12.30;6.50;;;20.30;99.90;;;;;;4996005;28;20434;-79
2023/07/29 04:09:17;;;;;;;8.50;6.53;;;20.30;99.90;;;;;;4996124;28;20021;-79
2023/07/29 04:11:43;;;;;;;7.63;6.00;;;20.20;99.90;;;;;;4991842;28;20046;-80
2023/07/29 04:14:09;;;;;;;7.50;6.72;;;20.30;99.90;;;;;;5139526;22;20045;-84
2023/07/29 04:16:37;;;;;;;7.20;6.45;;;20.40;99.90;;;;;;5034177;28;20041;-79
2023/07/29 04:19:02;;;;;;;10.13;6.57;;;20.30;99.90;;;;;;5034181;28;20096;-79
2023/07/29 04:21:28;;;;;;;11.50;6.95;;;20.20;99.90;;;;;;5033070;28;21672;-80
2023/07/29 04:23:53;;;;;;;7.80;7.10;;;20.30;99.90;;;;;;5031217;28;20512;-81
2023/07/29 04:26:19;;;;;;;10.10;6.35;;;20.20;99.90;;;;;;5034912;28;20021;-79
2023/07/29 04:28:50;;;;;;;8.65;7.03;;;20.30;99.90;;;;;;5016546;28;20115;-79
2023/07/29 04:31:16;;;;;;;8.27;6.68;;;20.40;99.90;;;;;;5034179;28;20032;-79
2023/07/29 04:33:41;;;;;;;10.85;6.07;;;20.40;99.90;;;;;;5033900;28;20021;-79
2023/07/29 04:36:07;;;;;;;6.18;5.57;;;20.50;99.90;;;;;;5034084;28;20090;-79
2023/07/29 04:38:33;;;;;;;5.63;4.88;;;20.40;99.90;;;;;;5015341;28;20045;-79
2023/07/29 04:41:02;;;;;;;5.30;4.80;;;20.40;99.90;;;;;;5017291;28;20029;-80
2023/07/29 04:43:32;;;;;;;5.13;4.55;;;20.40;99.90;;;;;;5015425;28;20413;-79
2023/07/29 04:45:57;;;;;;;4.80;3.78;;;20.40;99.90;;;;;;5034014;28;20044;-79
2023/07/29 04:48:23;;;;;;;9.20;4.38;;;20.10;99.90;;;;;;5032831;28;20049;-79
2023/07/29 04:50:48;;;;;;;4.30;3.72;;;20.20;99.90;;;;;;5016490;28;20024;-79
2023/07/29 04:53:14;;;;;;;4.05;3.65;;;20.10;99.90;;;;;;5032788;28;20487;-79
2023/07/29 04:55:43;;;;;;;4.40;3.70;;;20.10;99.90;;;;;;5031070;28;20029;-79
2023/07/29 04:58:09;;;;;;;3.97;3.42;;;20.10;99.90;;;;;;5020672;28;20040;-79
2023/07/29 05:00:37;;;;;;;4.32;3.58;;;20.10;99.90;;;;;;5031441;28;20369;-79
2023/07/29 05:03:03;;;;;;;6.68;3.67;;;20.10;99.90;;;;;;5034058;28;20029;-79
2023/07/29 05:05:28;;;;;;;3.80;3.50;;;20.20;99.90;;;;;;5033451;28;20032;-79
2023/07/29 05:07:54;;;;;;;3.60;3.35;;;20.10;99.90;;;;;;5016270;28;20044;-79
2023/07/29 05:10:20;;;;;;;3.55;3.25;;;20.10;99.90;;;;;;5014115;28;20029;-78
2023/07/29 05:12:46;;;;;;;4.50;3.53;;;20.20;99.90;;;;;;5032137;28;20159;-79
2023/07/29 05:15:11;;;;;;;3.67;3.30;;;20.20;99.90;;;;;;5035312;28;20145;-84
2023/07/29 05:17:38;;;;;;;3.22;2.90;;;20.20;99.90;;;;;;5031909;28;20033;-80
2023/07/29 05:20:04;;;;;;;4.82;2.97;;;20.20;99.90;;;;;;5032355;28;20013;-80
2023/07/29 05:22:29;;;;;;;4.80;3.10;;;20.20;99.90;;;;;;5029635;28;20082;-79
2023/07/29 05:24:55;;;;;;;7.35;3.78;;;20.20;99.90;;;;;;5012586;28;20033;-79
2023/07/29 05:27:20;;;;;;;4.55;3.53;;;20.10;99.90;;;;;;5030999;28;20021;-79
2023/07/29 05:29:46;;;;;;;5.63;3.55;;;20.00;99.90;;;;;;5031873;28;20051;-79
2023/07/29 05:32:12;;;;;;;9.70;4.57;;;19.90;99.90;;;;;;5018471;28;20029;-79
2023/07/29 05:34:37;;;;;;;7.10;5.00;;;19.90;99.90;;;;;;5034454;28;20120;-80
2023/07/29 05:37:03;;;;;;;10.95;6.63;;;19.90;99.90;;;;;;5041010;28;20576;-79
2023/07/29 05:39:29;;;;;;;6.50;5.57;;;19.80;99.90;;;;;;5040212;28;20105;-78
2023/07/29 05:41:55;;;;;;;8.57;6.03;;;19.80;99.90;;;;;;5016805;28;20025;-79
2023/07/29 05:44:25;;;;;;;6.20;5.60;;;19.80;99.90;;;;;;5015827;28;20028;-79
2023/07/29 05:46:51;;;;;;;6.25;4.40;;;19.80;99.90;;;;;;5034267;28;20473;-79
2023/07/29 05:49:16;;;;;;;7.43;4.88;;;19.70;99.90;;;;;;5031335;28;20107;-79
2023/07/29 05:51:42;;;;;;;4.70;4.28;;;19.70;99.90;;;;;;5033342;28;20040;-80
2023/07/29 05:54:08;;;;;;;4.95;4.47;;;19.80;99.90;;;;;;5017609;28;20500;-79
2023/07/29 05:56:36;;;;;;;8.82;3.95;;;19.70;99.70;;;;;;5035441;28;20033;-79
2023/07/29 05:59:01;;;;;;;4.63;4.15;;;19.70;99.70;;;;;;5034968;28;20116;-79
2023/07/29 06:01:27;;;;;;;4.20;3.80;;;19.80;99.90;;;;;;5033682;28;20104;-79
2023/07/29 06:03:52;;;;;;;4.93;4.28;;;19.80;99.70;;;;;;5018270;28;20025;-78
2023/07/29 06:06:18;;;;;;;6.78;4.40;;;19.90;99.50;;;;;;5017784;28;20074;-78
2023/07/29 06:08:44;;;;;;;4.00;3.67;;;19.80;99.50;;;;;;5017454;28;20104;-80
2023/07/29 06:11:09;;;;;;;9.35;3.92;;;19.90;99.40;;;;;;5017358;28;20072;-80
2023/07/29 06:13:35;;;;;;;4.15;3.75;;;19.80;99.10;;;;;;5033285;28;20017;-80
2023/07/29 06:16:01;;;;;;;5.40;4.07;;;19.80;99.10;;;;;;4994556;28;1107241;-81
2023/07/29 06:18:26;;;;;;;6.00;3.95;;;19.80;99.00;;;;;;5035277;28;20520;-78
2023/07/29 06:20:52;;;;;;;7.05;4.38;;;19.70;99.30;;;;;;5036569;28;20119;-80
2023/07/29 06:23:17;;;;;;;8.40;4.75;;;19.80;99.30;;;;;;5034485;28;20453;-81
2023/07/29 06:25:43;;;;;;;5.30;4.07;;;19.90;99.40;;;;;;5016894;28;20842;-80
2023/07/29 06:28:09;;;;;;;4.47;4.07;;;19.90;99.10;;;;;;5017572;28;20036;-80
2023/07/29 06:30:35;;;;;;;5.28;3.85;;;19.90;99.00;;;;;;5016665;28;20059;-80
2023/07/29 06:33:02;;;;;;;4.65;4.07;;;19.90;99.00;;;;;;5033160;28;20544;-80
2023/07/29 06:35:28;;;;;;;4.93;4.15;;;20.00;98.90;;;;;;5033619;28;20041;-80
2023/07/29 06:37:54;;;;;;;4.20;3.80;;;20.00;98.80;;;;;;5035965;28;20440;-80
2023/07/29 06:40:19;;;;;;;8.38;4.25;;;19.90;99.00;;;;;;5018017;28;20029;-80
2023/07/29 06:42:47;;;;;;;5.72;4.00;;;19.60;99.30;;;;;;5016899;28;20033;-80
2023/07/29 06:45:13;;;;;;;6.05;4.00;;;19.60;99.40;;;;;;5034392;28;20512;-80
2023/07/29 06:47:38;;;;;;;7.65;3.72;;;19.60;99.30;;;;;;5033381;28;20024;-80
2023/07/29 06:50:04;;;;;;;6.30;3.35;;;19.60;99.20;;;;;;5016931;28;20032;-80
2023/07/29 06:52:30;;;;;;;6.03;3.80;;;19.80;99.40;;;;;;5019777;28;20475;-80
2023/07/29 06:54:56;;;;;;;5.90;3.65;;;19.80;98.90;;;;;;5017167;28;20082;-81
2023/07/29 06:57:23;;;;;;;14.43;3.33;;;19.90;98.60;;;;;;5015687;28;20032;-81
2023/07/29 06:59:48;;;;;;;4.85;3.58;;;20.00;99.00;;;;;;5032898;28;20514;-80
2023/07/29 07:02:14;;;;;;;4.35;3.50;;;20.10;99.00;;;;;;5035285;28;20025;-81
2023/07/29 07:04:40;;;;;;;8.27;3.38;;;20.10;98.30;;;;;;5034083;28;20037;-81
2023/07/29 07:07:05;;;;;;;5.13;3.35;;;20.20;98.30;;;;;;5035179;28;20036;-81
2023/07/29 07:09:31;;;;;;;3.30;2.92;;;20.20;98.00;;;;;;5035465;28;20035;-81
2023/07/29 07:11:56;;;;;;;5.57;3.20;;;20.20;98.20;;;;;;5016518;28;20026;-80
2023/07/29 07:14:22;;;;;;;3.20;2.90;;;20.40;97.70;;;;;;5018965;28;20549;-80
2023/07/29 07:16:47;;;;;;;5.20;3.05;;;20.40;97.80;;;;;;5034478;28;20029;-80
2023/07/29 07:19:15;;;;;;;3.95;2.88;;;20.50;97.80;;;;;;5032490;28;20037;-81
2023/07/29 07:21:41;;;;;;;4.70;2.97;;;20.50;97.40;;;;;;5035932;28;20036;-81
2023/07/29 07:24:07;;;;;;;10.23;4.32;;;20.70;97.40;;;;;;5035937;28;20021;-81
2023/07/29 07:26:32;;;;;;;6.93;3.03;;;20.80;97.00;;;;;;5021821;28;20057;-80
2023/07/29 07:28:58;;;;;;;3.28;2.88;;;20.80;97.10;;;;;;5038596;28;20486;-81
2023/07/29 07:31:24;;;;;;;3.17;2.53;;;20.80;97.30;;;;;;5037545;28;20052;-81
2023/07/29 07:33:49;;;;;;;2.72;2.15;;;20.70;97.60;;;;;;5039208;28;20094;-80
2023/07/29 07:36:15;;;;;;;2.85;2.33;;;20.80;97.30;;;;;;5035460;28;20043;-81
2023/07/29 07:38:41;;;;;;;2.70;2.30;;;20.70;97.10;;;;;;5020298;28;20044;-80
2023/07/29 07:41:07;;;;;;;3.15;2.80;;;20.90;97.30;;;;;;5020490;28;20021;-82
2023/07/29 07:43:32;;;;;;;473.88;206.20;;;21.00;96.40;;;;;;5038308;28;20483;-79
2023/07/29 07:45:59;;;;;;;5.40;2.33;;;20.90;96.40;;;;;;5047558;28;20032;-81
2023/07/29 07:48:25;;;;;;;2.65;2.20;;;20.90;96.50;;;;;;5041652;28;20024;-80
2023/07/29 07:50:51;;;;;;;5.57;2.20;;;21.10;96.50;;;;;;5038810;28;20109;-79
2023/07/29 07:53:16;;;;;;;4.72;2.50;;;21.10;96.10;;;;;;5021129;28;20157;-78
2023/07/29 07:55:42;;;;;;;5.40;2.40;;;20.90;96.60;;;;;;5037482;28;20388;-79
2023/07/29 07:58:07;;;;;;;3.78;2.28;;;21.10;96.70;;;;;;5038156;28;20200;-78
2023/07/29 08:00:33;;;;;;;2.97;2.40;;;21.20;96.80;;;;;;5019998;28;20017;-79
2023/07/29 08:02:59;;;;;;;2.70;1.90;;;21.30;96.10;;;;;;5037717;28;20096;-76
2023/07/29 08:05:24;;;;;;;4.28;2.25;;;21.30;96.10;;;;;;5030053;28;20059;-77
2023/07/29 08:07:50;;;;;;;3.70;2.10;;;21.30;95.70;;;;;;5035510;28;20035;-76
2023/07/29 08:10:15;;;;;;;2.10;2.00;;;21.40;95.70;;;;;;5032607;28;20060;-77
2023/07/29 08:12:41;;;;;;;2.30;2.10;;;21.40;96.20;;;;;;5037245;28;20029;-81
2023/07/29 08:15:07;;;;;;;1.88;1.73;;;21.40;96.10;;;;;;5031478;28;20033;-80
2023/07/29 08:17:32;;;;;;;260.48;125.63;;;21.60;95.60;;;;;;5033308;28;20449;-82
2023/07/29 08:19:58;;;;;;;3.92;2.70;;;21.80;95.70;;;;;;5014804;28;20025;-84
2023/07/29 08:22:24;;;;;;;3.15;2.17;;;21.70;95.20;;;;;;5018583;28;20055;-85
2023/07/29 08:24:49;;;;;;;6.40;1.98;;;21.80;95.80;;;;;;5035804;28;20025;-83
2023/07/29 08:27:15;;;;;;;9.02;2.30;;;21.90;95.80;;;;;;5035522;28;20040;-86
2023/07/29 08:29:41;;;;;;;3.17;1.90;;;22.20;95.30;;;;;;5034900;28;20439;-83
2023/07/29 08:32:06;;;;;;;2.00;1.65;;;22.40;94.50;;;;;;5019314;28;20040;-82
2023/07/29 08:34:32;;;;;;;2.13;1.92;;;22.50;94.10;;;;;;5032979;28;20381;-82
2023/07/29 08:36:57;;;;;;;2.20;2.00;;;22.60;94.20;;;;;;5037024;28;20086;-83
2023/07/29 08:39:23;;;;;;;1.75;1.65;;;22.50;93.90;;;;;;5019440;28;20052;-82
2023/07/29 08:42:01;;;;;;;3.97;1.73;;;22.40;94.40;;;;;;5034020;28;20070;-83
2023/07/29 08:44:34;;;;;;;1.77;1.67;;;22.50;94.20;;;;;;5031676;28;20025;-82
2023/07/29 08:47:00;;;;;;;5.85;1.58;;;22.60;94.10;;;;;;5017298;28;20033;-82
2023/07/29 08:49:28;;;;;;;3.72;1.73;;;22.60;93.80;;;;;;5015995;28;20857;-83
2023/07/29 08:51:54;;;;;;;5.93;1.75;;;22.60;93.70;;;;;;5017584;28;20535;-83
2023/07/29 08:54:22;;;;;;;5.47;1.73;;;22.60;93.50;;;;;;5033410;28;20021;-83
2023/07/29 08:56:48;;;;;;;1.75;1.65;;;22.70;93.60;;;;;;5017384;28;20040;-84
2023/07/29 08:59:17;;;;;;;1.95;1.75;;;22.70;93.20;;;;;;5022956;28;20753;-82
2023/07/29 09:01:43;;;;;;;2.58;2.00;;;22.80;93.50;;;;;;5015725;28;20108;-84
2023/07/29 09:04:11;;;;;;;2.28;1.90;;;22.50;93.70;;;;;;5034559;28;20017;-84
2023/07/29 09:06:38;;;;;;;2.45;1.67;;;22.40;93.80;;;;;;5037008;28;20116;-87
2023/07/29 09:09:05;;;;;;;1.92;1.65;;;22.20;94.30;;;;;;5038669;28;20040;-87
2023/07/29 09:11:33;;;;;;;1.70;1.60;;;22.20;94.50;;;;;;5022033;28;20588;-88
2023/07/29 09:13:59;;;;;;;2.10;1.77;;;22.20;94.50;;;;;;5020156;28;20037;-87
2023/07/29 09:16:25;;;;;;;2.60;1.77;;;22.20;94.40;;;;;;5024089;28;20111;-87
2023/07/29 09:18:55;;;;;;;1.95;1.85;;;22.30;94.50;;;;;;5040230;28;20100;-86
2023/07/29 09:21:28;;;;;;;3.78;1.52;;;22.30;94.30;;;;;;5050299;28;20044;-88
2023/07/29 09:23:54;;;;;;;1.70;1.48;;;22.50;94.30;;;;;;5055085;28;20540;-87
2023/07/29 09:26:28;;;;;;;1.85;1.65;;;22.50;93.90;;;;;;5024367;28;20109;-87
2023/07/29 09:28:58;;;;;;;2.47;1.40;;;22.40;93.80;;;;;;5018248;28;20027;-86
2023/07/29 09:31:25;;;;;;;2.80;1.70;;;22.10;94.10;;;;;;5020694;28;20560;-88
2023/07/29 09:34:05;;;;;;;3.53;1.52;;;22.20;94.40;;;;;;5019193;28;20033;-89
2023/07/29 09:36:32;;;;;;;2.13;1.52;;;22.30;94.20;;;;;;5037040;28;20182;-86
2023/07/29 09:38:58;;;;;;;2.17;1.73;;;22.30;94.00;;;;;;5021168;28;20040;-88
2023/07/29 09:41:28;;;;;;;1.60;1.50;;;22.40;94.10;;;;;;5021459;28;21919;-86
2023/07/29 09:44:01;;;;;;;2.83;1.67;;;22.60;93.80;;;;;;5020872;28;20017;-88
2023/07/29 09:46:32;;;;;;;;;;;22.70;93.80;;;;;;5021950;28;20033;-88
2023/07/29 09:48:58;;;;;;;1.73;1.40;;;23.00;92.70;;;;;;5020586;28;19982;-91
2023/07/29 09:51:24;;;;;;;1.70;1.52;;;23.10;92.40;;;;;;5038762;28;20112;-91
2023/07/29 09:53:51;;;;;;;3.30;1.90;;;23.00;92.00;;;;;;5020769;28;20429;-87
2023/07/29 09:56:17;;;;;;;2.28;2.00;;;23.20;91.70;;;;;;5026230;28;20212;-85
2023/07/29 09:58:48;;;;;;;1.67;1.58;;;23.10;91.60;;;;;;5021871;28;20021;-87
2023/07/29 10:01:16;;;;;;;1.88;1.70;;;23.10;91.90;;;;;;5035214;28;20036;-88
2023/07/29 10:03:45;;;;;;;2.38;1.50;;;23.30;91.40;;;;;;5039238;28;20294;-88
2023/07/29 10:06:11;;;;;;;1.58;1.33;;;23.20;91.00;;;;;;5015720;28;20025;-88
2023/07/29 10:08:38;;;;;;;3.08;1.60;;;23.60;91.20;;;;;;5018014;28;20033;-86
2023/07/29 10:11:08;;;;;;;1.65;1.50;;;23.40;91.20;;;;;;5022506;28;20175;-86
2023/07/29 10:13:35;;;;;;;1.90;1.33;;;23.40;91.10;;;;;;5033131;28;20043;-87
2023/07/29 10:16:04;;;;;;;1.45;1.38;;;23.20;91.10;;;;;;5014341;28;20596;-88
2023/07/29 10:18:34;;;;;;;2.95;2.03;;;23.30;91.60;;;;;;5017746;28;20033;-86
2023/07/29 10:21:01;;;;;;;1.45;1.35;;;23.50;91.20;;;;;;5030923;28;20020;-86
2023/07/29 10:23:32;;;;;;;1.95;1.67;;;23.30;91.50;;;;;;5034719;28;20029;-86
2023/07/29 10:26:03;;;;;;;1.90;1.70;;;23.50;91.70;;;;;;5020259;28;20021;-87
2023/07/29 10:28:30;;;;;;;2.03;1.50;;;24.30;90.80;;;;;;5016864;28;20144;-87
2023/07/29 10:30:57;;;;;;;1.33;1.23;;;24.90;89.20;;;;;;5024831;28;20033;-89
2023/07/29 10:33:25;;;;;;;3.65;1.80;;;25.50;86.10;;;;;;5017622;28;20030;-86
2023/07/29 10:35:52;;;;;;;1.85;1.40;;;25.60;85.40;;;;;;5024465;28;20051;-87
2023/07/29 10:38:23;;;;;;;2.00;1.80;;;25.80;84.70;;;;;;5034161;28;20138;-87
2023/07/29 10:40:53;;;;;;;2.17;1.50;;;25.90;83.90;;;;;;5032242;28;20021;-87
2023/07/29 10:43:24;;;;;;;2.13;1.60;;;26.10;84.10;;;;;;5040169;28;20028;-87
2023/07/29 10:45:52;;;;;;;1.90;1.75;;;25.70;86.50;;;;;;5025890;28;20045;-85
2023/07/29 10:48:33;;;;;;;4.32;1.92;;;25.80;85.30;;;;;;5034523;28;20013;-87
2023/07/29 10:51:21;;;;;;;1.55;1.45;;;25.60;84.20;;;;;;5022528;28;20020;-86
2023/07/29 10:53:47;;;;;;;1.70;1.60;;;25.60;85.40;;;;;;5030296;28;20037;-86
2023/07/29 10:56:13;;;;;;;3.75;1.88;;;25.50;86.00;;;;;;5032894;28;20021;-86
2023/07/29 10:58:38;;;;;;;1.70;1.50;;;25.30;85.30;;;;;;5028497;28;20021;-86
2023/07/29 11:01:13;;;;;;;3.10;1.20;;;25.10;85.40;;;;;;5041245;28;20474;-86
2023/07/29 11:03:38;;;;;;;2.47;1.40;;;24.90;86.00;;;;;;5031629;28;20041;-85
2023/07/29 11:06:04;;;;;;;2.17;1.30;;;24.60;87.50;;;;;;5025982;28;20484;-86
2023/07/29 11:08:31;;;;;;;1.55;1.30;;;24.30;88.20;;;;;;5040324;28;20028;-88
2023/07/29 11:11:08;;;;;;;1.90;1.67;;;24.20;88.70;;;;;;5027645;28;20455;-87
2023/07/29 11:13:37;;;;;;;2.78;1.70;;;24.10;89.20;;;;;;5018076;28;20052;-87
2023/07/29 11:16:04;;;;;;;1.52;1.17;;;24.10;90.00;;;;;;5024310;28;20021;-87
2023/07/29 11:18:34;;;;;;;198.75;100.40;;;24.30;90.00;;;;;;5020830;28;20236;-89
2023/07/29 11:21:01;;;;;;;3.08;1.45;;;24.40;89.00;;;;;;5024434;28;20332;-86
2023/07/29 11:23:36;;;;;;;3.63;1.40;;;24.90;90.20;;;;;;5036714;28;20411;-87
2023/07/29 11:26:03;;;;;;;2.70;1.38;;;25.10;86.60;;;;;;5037851;28;20099;-87
2023/07/29 11:28:30;;;;;;;1.63;1.40;;;25.50;86.70;;;;;;5024290;28;20116;-86
2023/07/29 11:30:56;;;;;;;2.13;1.33;;;25.80;84.20;;;;;;5017726;28;20035;-86
2023/07/29 11:33:25;;;;;;;1.65;1.55;;;25.90;84.20;;;;;;5026240;28;20108;-87
2023/07/29 11:35:54;;;;;;;1.88;1.38;;;25.90;82.80;;;;;;5027401;28;20466;-85
2023/07/29 11:38:22;;;;;;;1.80;1.70;;;25.90;82.80;;;;;;5026396;28;20128;-87
2023/07/29 11:40:55;;;;;;;2.22;1.63;;;25.80;83.10;;;;;;5020777;28;20033;-87
2023/07/29 11:43:24;;;;;;;482.70;248.50;;;25.90;83.80;;;;;;5019338;28;20025;-86
2023/07/29 11:45:50;;;;;;;1.65;1.55;;;26.00;82.40;;;;;;5024828;28;20476;-87
2023/07/29 11:48:16;;;;;;;1.65;1.55;;;25.90;82.20;;;;;;5018257;28;20563;-86
2023/07/29 11:50:42;;;;;;;1.52;1.42;;;25.80;82.00;;;;;;5036697;28;20021;-86
2023/07/29 11:53:08;;;;;;;1.80;1.67;;;25.60;82.80;;;;;;5021594;28;20033;-87
2023/07/29 11:55:34;;;;;;;1.50;1.40;;;25.60;81.80;;;;;;5021351;28;20025;-86
2023/07/29 11:58:01;;;;;;;3.17;1.42;;;25.30;83.20;;;;;;5034565;28;20039;-85
2023/07/29 12:00:27;;;;;;;2.83;1.58;;;25.20;83.70;;;;;;5031759;28;20481;-87
2023/07/29 12:02:53;;;;;;;4.40;1.48;;;25.00;84.20;;;;;;5018126;28;20816;-86
2023/07/29 12:05:21;;;;;;;3.42;1.70;;;24.80;84.40;;;;;;5025318;28;20017;-85
2023/07/29 12:07:47;;;;;;;1.60;1.50;;;24.60;85.90;;;;;;5048481;28;20116;-85
2023/07/29 12:10:13;;;;;;;2.13;1.63;;;24.80;86.50;;;;;;5037111;28;20064;-85
2023/07/29 12:12:46;;;;;;;2.08;1.70;;;24.90;86.40;;;;;;5030958;28;20319;-86
2023/07/29 12:15:11;;;;;;;1.85;1.67;;;25.00;85.50;;;;;;5016395;28;20072;-89
2023/07/29 12:17:41;;;;;;;1.50;1.40;;;25.20;84.40;;;;;;5026812;28;20095;-86
2023/07/29 12:20:11;;;;;;;3.05;1.80;;;25.30;85.10;;;;;;5020930;28;20067;-85
2023/07/29 12:22:37;;;;;;;4.18;1.67;;;25.30;83.60;;;;;;5024110;28;20262;-85
2023/07/29 12:25:06;;;;;;;2.00;1.65;;;25.10;84.80;;;;;;5018231;28;20377;-86
2023/07/29 12:27:31;;;;;;;1.77;1.42;;;25.00;86.10;;;;;;5036572;28;20032;-85
2023/07/29 12:29:58;;;;;;;2.00;1.80;;;25.10;84.90;;;;;;5039101;28;20103;-89
2023/07/29 12:32:26;;;;;;;1.50;1.40;;;25.10;85.20;;;;;;5021942;28;20095;-88
2023/07/29 12:34:53;;;;;;;1.77;1.65;;;25.20;84.30;;;;;;5021197;28;20021;-86
2023/07/29 12:37:19;;;;;;;1.73;1.63;;;25.20;84.20;;;;;;5019117;28;20041;-86
2023/07/29 12:39:45;;;;;;;1.83;1.60;;;25.50;84.00;;;;;;5019929;28;20080;-88
2023/07/29 12:42:11;;;;;;;2.60;1.33;;;25.50;82.70;;;;;;5040881;28;20067;-87
2023/07/29 12:44:37;;;;;;;1.77;1.67;;;25.60;82.70;;;;;;5025364;28;20017;-88